ムルマンスク の空港の天気 - METARとTAF

ムルマンスク空港 ( ULMM / MMK ) - ロシア ムルマンスク
飛行場実況気象(Metar)
観測時間06/24 12:30 MSK (06/24 09:30 UTC)
風向・風速北北西 3m/s
視程10km以上
天気現象
なし
気温14℃
湿度36%
気圧1020hPa
METARULMM 240930Z 33003MPS 280V020 CAVOK 14/M01 Q1020 R31/090070 NOSIG RMK QFE758
過去の天気等 Google飛行場航空写真 Wunderground天気予報

過去48時間のMETAR

飛行場予報(TAF)
発表時間: 6/24 10:56 MSK (6/24 07:56 UTC)
予報対象時間: 24日12時 MSK ~ 25日12時 MSK
風向・風速北北西 3m/s 瞬間風速 8m/s
視程10km以上
全天の4割程度の雲 雲底高度 910m
24日12時 MSK ~ 24日21時 MSK に一時的に
風向・風速北 4m/s 瞬間風速 9m/s
24日21時 MSK ~ 25日6時 MSK に一時的に
風向・風速不定 1m/s
全天の8割程度の雲 雲底高度 910m
25日6時 MSK ~ 25日12時 MSK に一時的に
風向・風速西北西 3m/s
天気現象弱いしゅう雨
全天の8割程度の積乱雲 雲底高度 910m
TAF ULMM 240756Z 2409/2509 34003G08MPS 9999 SCT030
TEMPO 2409/2418 01004G09MPS
TEMPO 2418/2503 VRB01MPS BKN030
TEMPO 2503/2509 29003MPS -SHRA BKN030CB